Terminal Aerodrome Forecast
Issued by NWS

Home | Current Version | Previous Version | Graphics & Text | Print | Product List | Glossary On
Versions: 1 2 3 4 5 6 7 8 9 10 11 12 13
000
FTUS43 KBIS 171120
TAFJMS
TAF
KJMS 171120Z 1712/1812 12011KT P6SM BKN200
     FM171500 12015G23KT P6SM BKN200
     FM172200 09011KT P6SM BKN090
     FM180100 06009KT P6SM BKN080
     FM180600 06008KT P6SM BKN020=

USA.gov is the U.S. government's official web portal to all federal, state and local government web resources and services.